createdAt,value
2023-03-25T00:00:24.927Z,1.48
2023-03-25T00:02:53.727Z,1.20
2023-03-25T00:05:23.498Z,1.35
2023-03-25T00:07:53.572Z,1.35
2023-03-25T00:10:23.354Z,1.20
2023-03-25T00:12:52.904Z,1.75
2023-03-25T00:15:22.413Z,1.48
2023-03-25T00:17:50.862Z,2.78
2023-03-25T00:20:19.120Z,1.33
2023-03-25T00:22:47.572Z,1.02
2023-03-25T00:25:19.407Z,1.27
2023-03-25T00:27:51.145Z,1.95
2023-03-25T00:30:21.165Z,1.27
2023-03-25T00:32:53.171Z,1.42
2023-03-25T00:35:21.981Z,1.30
2023-03-25T00:37:57.653Z,1.80
2023-03-25T00:40:28.665Z,2.50
2023-03-25T00:43:01.645Z,2.83
2023-03-25T00:45:30.290Z,2.72
2023-03-25T00:47:58.851Z,1.67
2023-03-25T00:50:27.506Z,1.80
2023-03-25T00:52:55.742Z,1.90
2023-03-25T00:55:23.843Z,1.95
2023-03-25T00:57:52.024Z,2.70
2023-03-25T01:00:21.700Z,1.80
2023-03-25T01:02:54.141Z,2.67
2023-03-25T01:05:22.582Z,1.42
2023-03-25T01:07:51.963Z,1.35
2023-03-25T01:10:20.336Z,1.17
2023-03-25T01:12:48.633Z,1.95
2023-03-25T01:15:16.984Z,1.48
2023-03-25T01:17:46.601Z,1.35
2023-03-25T01:20:15.346Z,1.73
2023-03-25T01:22:43.442Z,1.23
2023-03-25T01:25:11.532Z,1.27
2023-03-25T01:27:39.886Z,1.65
2023-03-25T01:30:09.471Z,1.27
2023-03-25T01:32:37.565Z,1.70
2023-03-25T01:35:07.893Z,1.38
2023-03-25T01:37:36.734Z,1.20
2023-03-25T01:40:08.959Z,1.10
2023-03-25T01:42:37.230Z,0.95
2023-03-25T01:45:19.424Z,0.77
2023-03-25T01:47:49.426Z,0.98
2023-03-25T01:50:19.289Z,1.00
2023-03-25T01:52:51.593Z,0.85
2023-03-25T01:55:21.450Z,0.82
2023-03-25T01:57:54.455Z,0.70
2023-03-25T02:00:22.905Z,0.98
2023-03-25T02:02:52.827Z,0.82
2023-03-25T02:05:29.357Z,1.05
2023-03-25T02:08:00.676Z,1.48
2023-03-25T02:10:28.863Z,0.88
2023-03-25T02:12:57.335Z,0.95
2023-03-25T02:15:25.873Z,1.20
2023-03-25T02:18:09.323Z,1.48
2023-03-25T02:21:24.955Z,1.10
2023-03-25T02:24:30.107Z,1.60
2023-03-25T02:27:33.879Z,1.08
2023-03-25T02:30:28.387Z,1.58
2023-03-25T02:33:16.749Z,1.00
2023-03-25T02:36:05.788Z,1.00
2023-03-25T02:38:41.975Z,1.10
2023-03-25T02:41:15.619Z,2.03
2023-03-25T02:43:52.433Z,1.00
2023-03-25T02:46:21.504Z,1.02
2023-03-25T02:48:55.438Z,0.77
2023-03-25T02:51:29.610Z,1.20
2023-03-25T02:54:03.647Z,1.20
2023-03-25T02:56:33.595Z,1.15
2023-03-25T02:59:04.163Z,1.10
2023-03-25T03:01:34.917Z,0.90
2023-03-25T03:04:03.614Z,2.47
2023-03-25T03:06:34.116Z,1.55
2023-03-25T03:09:23.124Z,1.45
2023-03-25T03:12:01.847Z,1.00
2023-03-25T03:14:44.746Z,1.52
2023-03-25T03:17:20.279Z,1.27
2023-03-25T03:19:53.228Z,1.25
2023-03-25T03:22:40.856Z,1.13
2023-03-25T03:25:22.028Z,1.10
2023-03-25T03:27:55.209Z,1.35
2023-03-25T03:30:32.672Z,1.05
2023-03-25T03:33:10.096Z,1.23
2023-03-25T03:35:44.180Z,1.58
2023-03-25T03:38:16.537Z,1.63
2023-03-25T03:40:51.972Z,1.55
2023-03-25T03:43:26.477Z,1.83
2023-03-25T03:45:59.890Z,1.00
2023-03-25T03:48:32.529Z,1.38
2023-03-25T03:51:08.037Z,0.80
2023-03-25T03:53:39.493Z,1.05
2023-03-25T03:58:42.103Z,1.38
2023-03-25T04:03:45.043Z,1.38
2023-03-25T04:06:21.195Z,1.83
2023-03-25T04:08:59.079Z,1.08
2023-03-25T04:11:34.512Z,1.17
2023-03-25T04:14:04.856Z,1.30
2023-03-25T04:16:36.009Z,1.23
2023-03-25T04:19:05.485Z,1.10
2023-03-25T04:21:34.572Z,1.63
2023-03-25T04:24:02.778Z,1.23
2023-03-25T04:26:34.039Z,0.88
2023-03-25T04:29:03.121Z,0.68
2023-03-25T04:31:32.231Z,1.38
2023-03-25T04:34:02.373Z,1.10
2023-03-25T04:36:34.847Z,1.00
2023-03-25T04:39:02.992Z,0.93
2023-03-25T04:41:33.764Z,1.10
2023-03-25T04:44:01.913Z,1.27
2023-03-25T04:46:30.049Z,1.08
2023-03-25T04:48:58.625Z,0.90
2023-03-25T04:51:27.261Z,0.98
2023-03-25T04:53:55.689Z,0.90
2023-03-25T04:56:23.754Z,1.42
2023-03-25T04:58:53.622Z,1.10
2023-03-25T05:01:30.990Z,1.38
2023-03-25T05:04:05.682Z,1.00
2023-03-25T05:06:34.870Z,1.20
2023-03-25T05:09:04.602Z,1.13
2023-03-25T05:11:33.822Z,1.27
2023-03-25T05:14:03.658Z,1.35
2023-03-25T05:16:31.924Z,1.48
2023-03-25T05:19:00.113Z,1.90
2023-03-25T05:21:28.602Z,1.60
2023-03-25T05:23:58.394Z,1.48
2023-03-25T05:26:34.365Z,1.27
2023-03-25T05:29:04.874Z,3.63
2023-03-25T05:31:33.170Z,1.63
2023-03-25T05:34:01.621Z,2.00
2023-03-25T05:36:29.843Z,2.33
2023-03-25T05:38:58.329Z,1.70
2023-03-25T05:41:33.234Z,1.63
2023-03-25T05:44:01.935Z,1.88
2023-03-25T05:46:31.533Z,2.85
2023-03-25T05:49:01.100Z,1.38
2023-03-25T05:51:34.095Z,1.73
2023-03-25T05:54:02.661Z,1.35
2023-03-25T05:56:31.384Z,1.75
2023-03-25T05:58:59.580Z,1.88
2023-03-25T06:01:33.323Z,1.90
2023-03-25T06:04:05.373Z,1.50
2023-03-25T06:06:36.096Z,1.73
2023-03-25T06:09:05.875Z,1.77
2023-03-25T06:11:38.465Z,2.13
2023-03-25T06:14:07.338Z,1.92
2023-03-25T06:16:35.875Z,1.83
2023-03-25T06:19:05.747Z,2.00
2023-03-25T06:21:35.057Z,2.22
2023-03-25T06:24:03.773Z,1.42
2023-03-25T06:26:33.012Z,1.50
2023-03-25T06:29:01.330Z,1.40
2023-03-25T06:31:34.355Z,1.50
2023-03-25T06:34:03.203Z,2.17
2023-03-25T06:36:34.812Z,1.42
2023-03-25T06:39:05.298Z,2.15
2023-03-25T06:41:35.883Z,1.17
2023-03-25T06:44:05.129Z,1.08
2023-03-25T06:46:33.367Z,1.42
2023-03-25T06:49:01.560Z,1.17
2023-03-25T06:51:29.605Z,1.92
2023-03-25T06:53:59.099Z,1.20
2023-03-25T06:56:27.335Z,1.00
2023-03-25T06:58:55.718Z,1.17
2023-03-25T07:01:23.970Z,1.70
2023-03-25T07:03:52.154Z,1.30
2023-03-25T07:06:22.618Z,1.95
2023-03-25T07:08:51.556Z,1.30
2023-03-25T07:11:26.376Z,1.70
2023-03-25T07:13:54.605Z,1.00
2023-03-25T07:16:23.251Z,1.73
2023-03-25T07:18:52.225Z,0.93
2023-03-25T07:21:20.860Z,1.52
2023-03-25T07:23:49.063Z,1.75
2023-03-25T07:26:17.211Z,1.63
2023-03-25T07:28:48.171Z,1.63
2023-03-25T07:31:17.972Z,1.50
2023-03-25T07:33:46.163Z,1.33
2023-03-25T07:36:14.843Z,1.10
2023-03-25T07:38:43.074Z,1.48
2023-03-25T07:41:12.882Z,1.00
2023-03-25T07:43:41.928Z,1.23
2023-03-25T07:46:11.658Z,1.20
2023-03-25T07:48:39.820Z,1.33
2023-03-25T07:51:10.760Z,1.08
2023-03-25T07:53:42.544Z,0.73
2023-03-25T07:56:11.527Z,1.20
2023-03-25T07:58:39.758Z,1.42
2023-03-25T08:01:08.942Z,1.00
2023-03-25T08:03:40.042Z,1.27
2023-03-25T08:06:09.708Z,1.05
2023-03-25T08:08:38.018Z,1.55
2023-03-25T08:11:06.681Z,1.27
2023-03-25T08:13:35.049Z,1.05
2023-03-25T08:16:03.182Z,1.00
2023-03-25T08:18:31.473Z,1.15
2023-03-25T08:21:00.994Z,0.95
2023-03-25T08:23:29.271Z,1.77
2023-03-25T08:25:57.452Z,1.20
2023-03-25T08:28:27.065Z,1.80
2023-03-25T08:30:55.993Z,1.05
2023-03-25T08:33:27.651Z,1.20
2023-03-25T08:35:58.727Z,1.98
2023-03-25T08:38:33.096Z,0.90
2023-03-25T08:41:03.162Z,0.90
2023-03-25T08:43:31.462Z,0.95
2023-03-25T08:45:59.805Z,1.00
2023-03-25T08:48:27.993Z,2.10
2023-03-25T08:50:56.184Z,1.23
2023-03-25T08:53:24.352Z,1.70
2023-03-25T08:55:54.968Z,1.20
2023-03-25T08:58:23.723Z,2.10
2023-03-25T09:00:54.516Z,1.60
2023-03-25T09:03:22.763Z,1.48
2023-03-25T09:05:51.650Z,1.63
2023-03-25T09:08:20.123Z,1.80
2023-03-25T09:10:48.316Z,1.13
2023-03-25T09:13:18.326Z,1.30
2023-03-25T09:15:47.076Z,2.08
2023-03-25T09:18:15.566Z,1.35
2023-03-25T09:20:43.750Z,1.50
2023-03-25T09:23:12.506Z,1.77
2023-03-25T09:25:40.730Z,1.38
2023-03-25T09:28:08.870Z,1.23
2023-03-25T09:30:38.468Z,2.50
2023-03-25T09:33:07.374Z,1.08
2023-03-25T09:35:35.779Z,1.45
2023-03-25T09:38:03.905Z,1.98
2023-03-25T09:40:32.792Z,1.75
2023-03-25T09:43:14.914Z,1.63
2023-03-25T09:45:47.291Z,1.40
2023-03-25T09:48:28.714Z,1.30
2023-03-25T09:50:58.342Z,1.35
2023-03-25T09:53:32.452Z,1.20
2023-03-25T09:56:01.874Z,1.48
2023-03-25T09:58:38.665Z,0.95
2023-03-25T10:01:31.198Z,2.08
2023-03-25T10:04:13.274Z,1.13
2023-03-25T10:06:48.330Z,1.42
2023-03-25T10:09:35.929Z,2.33
2023-03-25T10:12:12.619Z,1.05
2023-03-25T10:14:56.890Z,1.10
2023-03-25T10:17:38.540Z,1.25
2023-03-25T10:22:55.573Z,1.30
2023-03-25T10:25:28.866Z,1.55
2023-03-25T10:27:58.544Z,1.33
2023-03-25T10:30:28.844Z,1.77
2023-03-25T10:33:00.028Z,1.27
2023-03-25T10:35:31.246Z,1.25
2023-03-25T10:38:08.676Z,1.80
2023-03-25T10:40:44.854Z,1.05
2023-03-25T10:43:19.749Z,1.30
2023-03-25T10:45:49.501Z,1.10
2023-03-25T10:48:24.052Z,1.40
2023-03-25T10:50:54.437Z,1.10
2023-03-25T10:53:27.333Z,1.10
2023-03-25T10:55:59.851Z,1.17
2023-03-25T10:58:28.840Z,1.13
2023-03-25T11:00:57.043Z,1.15
2023-03-25T11:03:31.906Z,1.05
2023-03-25T11:06:00.114Z,0.95
2023-03-25T11:08:28.494Z,1.00
2023-03-25T11:11:01.283Z,1.10
2023-03-25T11:13:32.112Z,1.45
2023-03-25T11:16:04.002Z,1.27
2023-03-25T11:18:40.409Z,1.35
2023-03-25T11:21:12.518Z,0.70
2023-03-25T11:26:19.677Z,1.42
2023-03-25T11:28:50.303Z,1.83
2023-03-25T11:31:21.052Z,2.17
2023-03-25T11:34:05.952Z,1.15
2023-03-25T11:36:39.434Z,1.30
2023-03-25T11:39:17.763Z,0.60
2023-03-25T11:41:47.167Z,0.80
2023-03-25T11:44:24.511Z,1.25
2023-03-25T11:46:56.048Z,1.25
2023-03-25T11:52:00.562Z,0.95
2023-03-25T11:54:29.782Z,1.17
2023-03-25T11:56:58.349Z,0.82
2023-03-25T11:59:28.561Z,1.10
2023-03-25T12:02:04.271Z,1.05
2023-03-25T12:04:34.042Z,1.00
2023-03-25T12:07:08.734Z,1.20
2023-03-25T12:09:37.452Z,1.10
2023-03-25T12:12:44.348Z,1.52
2023-03-25T12:15:24.806Z,1.58
2023-03-25T12:18:08.396Z,1.38
2023-03-25T12:20:50.042Z,1.35
2023-03-25T12:23:28.104Z,1.08
2023-03-25T12:26:06.806Z,1.00
2023-03-25T12:29:06.244Z,0.70
2023-03-25T12:31:48.527Z,1.00
2023-03-25T12:34:27.469Z,1.42
2023-03-25T12:37:06.994Z,0.80
2023-03-25T12:39:49.687Z,1.27
2023-03-25T12:42:36.482Z,1.13
2023-03-25T12:45:37.674Z,0.90
2023-03-25T12:48:10.778Z,0.95
2023-03-25T12:50:54.617Z,1.13
2023-03-25T12:53:40.994Z,0.90
2023-03-25T12:56:25.260Z,0.80
2023-03-25T12:59:19.313Z,1.20
2023-03-25T13:02:00.396Z,0.60
2023-03-25T13:04:45.142Z,0.85
2023-03-25T13:07:17.318Z,2.67
2023-03-25T13:09:57.776Z,1.17
2023-03-25T13:12:33.570Z,0.70
2023-03-25T13:15:07.963Z,0.70
2023-03-25T13:17:42.870Z,0.70
2023-03-25T13:20:12.577Z,0.90
2023-03-25T13:22:45.080Z,0.90
2023-03-25T13:25:22.672Z,1.17
2023-03-25T13:27:53.462Z,1.55
2023-03-25T13:30:32.509Z,1.33
2023-03-25T13:33:08.349Z,1.20
2023-03-25T13:35:43.823Z,0.80
2023-03-25T13:38:18.762Z,0.82
2023-03-25T13:40:55.429Z,0.90
2023-03-25T13:43:30.422Z,0.85
2023-03-25T13:46:03.387Z,1.00
2023-03-25T13:48:40.313Z,0.75
2023-03-25T13:51:10.331Z,1.25
2023-03-25T13:56:43.413Z,0.50
2023-03-25T13:59:36.901Z,0.50
2023-03-25T14:02:55.288Z,0.77
2023-03-25T14:06:00.948Z,1.00
2023-03-25T14:09:11.274Z,0.80
2023-03-25T14:11:44.561Z,0.70
2023-03-25T14:14:16.503Z,0.82
2023-03-25T14:16:50.952Z,0.80
2023-03-25T14:19:31.689Z,1.10
2023-03-25T14:22:01.026Z,0.95
2023-03-25T14:24:32.773Z,0.98
2023-03-25T14:27:03.855Z,0.90
2023-03-25T14:29:39.852Z,0.50
2023-03-25T14:32:32.623Z,0.60
2023-03-25T14:35:49.235Z,1.00
2023-03-25T14:38:25.728Z,0.63
2023-03-25T14:41:03.428Z,1.27
2023-03-25T14:43:37.635Z,1.52
2023-03-25T14:46:07.702Z,1.10
2023-03-25T14:48:45.888Z,1.17
2023-03-25T14:51:45.681Z,0.90
2023-03-25T14:54:30.099Z,1.13
2023-03-25T14:57:04.099Z,0.82
2023-03-25T14:59:37.084Z,1.10
2023-03-25T15:02:11.999Z,1.17
2023-03-25T15:04:42.375Z,0.70
2023-03-25T15:07:17.413Z,0.70
2023-03-25T15:09:51.796Z,0.82
2023-03-25T15:12:24.210Z,0.70
2023-03-25T15:14:57.528Z,1.08
2023-03-25T15:17:45.786Z,1.27
2023-03-25T15:20:37.677Z,1.42
2023-03-25T15:25:55.967Z,1.05
2023-03-25T15:31:13.165Z,0.85
2023-03-25T15:34:13.470Z,1.10
2023-03-25T15:36:55.041Z,0.98
2023-03-25T15:42:24.715Z,1.30
2023-03-25T15:45:22.684Z,0.93
2023-03-25T15:48:17.648Z,1.00
2023-03-25T15:51:02.604Z,1.90
2023-03-25T15:53:59.976Z,1.50
2023-03-25T15:56:31.867Z,0.98
2023-03-25T15:59:05.863Z,1.70
2023-03-25T16:01:37.571Z,1.55
2023-03-25T16:04:11.963Z,1.40
2023-03-25T16:06:42.533Z,2.15
2023-03-25T16:09:19.435Z,1.52
2023-03-25T16:11:48.084Z,1.40
2023-03-25T16:14:18.151Z,1.13
2023-03-25T16:16:49.455Z,1.20
2023-03-25T16:19:21.409Z,1.30
2023-03-25T16:21:51.036Z,1.25
2023-03-25T16:24:24.956Z,1.60
2023-03-25T16:26:53.878Z,1.30
2023-03-25T16:29:24.306Z,1.17
2023-03-25T16:31:56.577Z,1.58
2023-03-25T16:34:25.899Z,1.50
2023-03-25T16:36:55.222Z,1.55
2023-03-25T16:39:26.283Z,1.48
2023-03-25T16:42:02.307Z,3.00
2023-03-25T16:44:30.668Z,1.17
2023-03-25T16:46:59.367Z,0.93
2023-03-25T16:49:31.090Z,1.25
2023-03-25T16:52:01.777Z,1.67
2023-03-25T16:54:37.804Z,1.57
2023-03-25T16:57:08.984Z,1.65
2023-03-25T16:59:39.514Z,0.90
2023-03-25T17:02:25.908Z,1.20
2023-03-25T17:04:58.049Z,1.02
2023-03-25T17:07:29.190Z,0.80
2023-03-25T17:10:00.241Z,0.90
2023-03-25T17:12:30.784Z,0.85
2023-03-25T17:15:08.944Z,0.82
2023-03-25T17:17:43.696Z,0.75
2023-03-25T17:20:19.266Z,0.50
2023-03-25T17:22:59.583Z,0.55
2023-03-25T17:25:32.454Z,0.77
2023-03-25T17:28:08.346Z,0.73
2023-03-25T17:30:42.934Z,0.93
2023-03-25T17:33:13.860Z,1.00
2023-03-25T17:35:44.443Z,0.68
2023-03-25T17:38:24.757Z,1.63
2023-03-25T17:41:02.430Z,0.60
2023-03-25T17:43:33.728Z,0.80
2023-03-25T17:46:02.861Z,0.63
2023-03-25T17:48:30.990Z,0.75
2023-03-25T17:51:01.773Z,0.80
2023-03-25T17:53:29.918Z,0.85
2023-03-25T17:55:59.352Z,0.70
2023-03-25T17:58:28.979Z,0.85
2023-03-25T18:00:57.585Z,1.33
2023-03-25T18:03:28.262Z,2.13
2023-03-25T18:05:58.547Z,1.37
2023-03-25T18:08:26.741Z,2.20
2023-03-25T18:10:56.724Z,1.67
2023-03-25T18:13:25.234Z,0.98
2023-03-25T18:15:55.596Z,2.00
2023-03-25T18:18:25.953Z,1.95
2023-03-25T18:20:56.092Z,2.00
2023-03-25T18:23:24.615Z,1.45
2023-03-25T18:25:52.875Z,0.85
2023-03-25T18:28:21.792Z,0.80
2023-03-25T18:30:54.175Z,0.90
2023-03-25T18:33:24.793Z,0.60
2023-03-25T18:35:53.576Z,0.63
2023-03-25T18:38:24.475Z,0.60
2023-03-25T18:40:53.810Z,0.77
2023-03-25T18:43:22.152Z,1.27
2023-03-25T18:45:50.889Z,1.55
2023-03-25T18:48:21.835Z,1.45
2023-03-25T18:50:57.448Z,2.00
2023-03-25T18:53:27.457Z,1.48
2023-03-25T18:55:59.829Z,1.73
2023-03-25T18:58:30.796Z,3.40
2023-03-25T19:01:00.165Z,2.30
2023-03-25T19:03:31.808Z,2.13
2023-03-25T19:06:02.922Z,2.17
2023-03-25T19:08:31.182Z,2.55
2023-03-25T19:11:11.795Z,2.47
2023-03-25T19:13:47.453Z,2.40
2023-03-25T19:16:15.752Z,2.92
2023-03-25T19:18:44.007Z,2.83
2023-03-25T19:21:16.276Z,3.40
2023-03-25T19:23:44.400Z,3.20
2023-03-25T19:26:12.741Z,3.17
2023-03-25T19:28:41.184Z,3.17
2023-03-25T19:31:09.490Z,3.00
2023-03-25T19:33:37.681Z,3.58
2023-03-25T19:36:06.600Z,3.30
2023-03-25T19:38:36.123Z,2.40
2023-03-25T19:41:07.249Z,3.25
2023-03-25T19:43:36.002Z,2.90
2023-03-25T19:46:05.604Z,3.17
2023-03-25T19:48:34.623Z,2.40
2023-03-25T19:51:02.781Z,3.30
2023-03-25T19:53:31.640Z,2.42
2023-03-25T19:56:05.025Z,3.00
2023-03-25T19:58:34.848Z,3.15
2023-03-25T20:01:03.067Z,3.15
2023-03-25T20:03:33.753Z,3.17
2023-03-25T20:06:03.484Z,3.90
2023-03-25T20:08:32.185Z,3.25
2023-03-25T20:11:01.448Z,3.33
2023-03-25T20:13:31.206Z,3.40
2023-03-25T20:15:59.333Z,2.95
2023-03-25T20:18:27.844Z,3.17
2023-03-25T20:20:56.125Z,3.45
2023-03-25T20:23:24.285Z,3.70
2023-03-25T20:25:53.340Z,5.00
2023-03-25T20:28:22.907Z,3.92
2023-03-25T20:30:52.666Z,4.35
2023-03-25T20:33:24.099Z,4.25
2023-03-25T20:35:52.565Z,4.78
2023-03-25T20:38:21.562Z,5.53
2023-03-25T20:40:49.797Z,5.25
2023-03-25T20:43:17.832Z,5.00
2023-03-25T20:45:45.962Z,4.85
2023-03-25T20:48:15.547Z,6.38
2023-03-25T20:50:43.699Z,5.63
2023-03-25T20:53:12.204Z,6.00
2023-03-25T20:55:40.889Z,6.78
2023-03-25T20:58:08.974Z,6.85
2023-03-25T21:00:38.951Z,6.72
2023-03-25T21:03:07.188Z,5.78
2023-03-25T21:05:40.911Z,6.20
2023-03-25T21:08:09.100Z,7.75
2023-03-25T21:10:37.323Z,6.05
2023-03-25T21:13:08.674Z,5.90
2023-03-25T21:15:38.647Z,6.35
2023-03-25T21:18:09.075Z,5.93
2023-03-25T21:20:38.995Z,6.85
2023-03-25T21:23:07.334Z,5.78
2023-03-25T21:25:35.592Z,6.65
2023-03-25T21:28:05.243Z,6.75
2023-03-25T21:30:33.822Z,6.90
2023-03-25T21:33:02.200Z,5.97
2023-03-25T21:35:30.426Z,5.75
2023-03-25T21:38:01.091Z,7.90
2023-03-25T21:40:39.510Z,6.53
2023-03-25T21:43:08.332Z,5.63
2023-03-25T21:45:36.664Z,6.32
2023-03-25T21:48:05.211Z,6.13
2023-03-25T21:50:34.421Z,5.40
2023-03-25T21:53:06.329Z,6.05
2023-03-25T21:55:38.505Z,6.45
2023-03-25T21:58:06.774Z,7.07
2023-03-25T22:00:34.991Z,5.85
2023-03-25T22:03:03.176Z,6.50
2023-03-25T22:05:32.830Z,6.88
2023-03-25T22:08:01.059Z,7.20
2023-03-25T22:10:30.838Z,6.75
2023-03-25T22:12:58.996Z,6.85
2023-03-25T22:15:27.248Z,6.97
2023-03-25T22:17:55.485Z,6.15
2023-03-25T22:20:23.898Z,5.80
2023-03-25T22:22:53.851Z,6.28
2023-03-25T22:25:21.970Z,6.22
2023-03-25T22:27:51.623Z,5.90
2023-03-25T22:30:19.794Z,6.45
2023-03-25T22:32:48.291Z,6.80
2023-03-25T22:35:18.647Z,5.83
2023-03-25T22:37:47.352Z,6.88
2023-03-25T22:40:15.704Z,5.95
2023-03-25T22:42:44.024Z,5.32
2023-03-25T22:45:13.998Z,6.28
2023-03-25T22:47:42.137Z,4.80
2023-03-25T22:50:11.465Z,6.25
2023-03-25T22:52:41.513Z,6.07
2023-03-25T22:55:11.098Z,4.60
2023-03-25T22:57:39.240Z,6.28
2023-03-25T23:00:12.826Z,5.00
2023-03-25T23:02:42.816Z,5.22
2023-03-25T23:05:11.366Z,5.30
2023-03-25T23:07:39.527Z,4.43
2023-03-25T23:10:09.141Z,4.65
2023-03-25T23:12:37.294Z,5.78
2023-03-25T23:15:06.326Z,5.78
2023-03-25T23:17:35.591Z,5.50
2023-03-25T23:20:08.622Z,5.18
2023-03-25T23:22:36.814Z,5.95
2023-03-25T23:25:05.726Z,7.65
2023-03-25T23:27:34.518Z,7.50
2023-03-25T23:30:03.190Z,6.80
2023-03-25T23:32:33.922Z,7.03
2023-03-25T23:35:03.504Z,6.68
2023-03-25T23:37:34.074Z,6.97
2023-03-25T23:40:02.391Z,7.63
2023-03-25T23:42:35.875Z,8.27
2023-03-25T23:45:04.593Z,5.78
2023-03-25T23:47:32.708Z,6.55
2023-03-25T23:50:02.148Z,6.25
2023-03-25T23:52:31.047Z,6.07
2023-03-25T23:55:00.705Z,5.25
2023-03-25T23:57:30.247Z,5.95
2023-03-25T23:59:58.469Z,7.00
